sensor_id;sensor_type;location;lat;lon;timestamp;P1;durP1;ratioP1;P2;durP2;ratioP2
50134;SDS011;36033;55.482;37.380;2022-08-21T00:00:24;36.15;;;29.90;;
50134;SDS011;36033;55.482;37.380;2022-08-21T00:02:55;35.78;;;29.15;;
50134;SDS011;36033;55.482;37.380;2022-08-21T00:05:22;36.70;;;31.15;;
50134;SDS011;36033;55.482;37.380;2022-08-21T00:07:48;37.08;;;32.13;;
50134;SDS011;36033;55.482;37.380;2022-08-21T00:10:14;40.97;;;28.98;;
50134;SDS011;36033;55.482;37.380;2022-08-21T00:12:41;37.75;;;31.08;;
50134;SDS011;36033;55.482;37.380;2022-08-21T00:15:08;37.63;;;31.88;;
50134;SDS011;36033;55.482;37.380;2022-08-21T00:17:35;39.15;;;31.95;;
50134;SDS011;36033;55.482;37.380;2022-08-21T00:20:01;46.83;;;34.97;;
50134;SDS011;36033;55.482;37.380;2022-08-21T00:22:29;39.28;;;31.20;;
50134;SDS011;36033;55.482;37.380;2022-08-21T00:24:55;41.30;;;31.00;;
50134;SDS011;36033;55.482;37.380;2022-08-21T00:27:23;42.60;;;33.83;;
50134;SDS011;36033;55.482;37.380;2022-08-21T00:29:48;40.75;;;34.35;;
50134;SDS011;36033;55.482;37.380;2022-08-21T00:32:19;40.65;;;36.38;;
50134;SDS011;36033;55.482;37.380;2022-08-21T00:34:46;41.88;;;37.42;;
50134;SDS011;36033;55.482;37.380;2022-08-21T00:37:12;40.15;;;33.60;;
50134;SDS011;36033;55.482;37.380;2022-08-21T00:39:37;42.95;;;37.67;;
50134;SDS011;36033;55.482;37.380;2022-08-21T00:42:03;46.28;;;33.47;;
50134;SDS011;36033;55.482;37.380;2022-08-21T00:44:29;38.08;;;32.95;;
50134;SDS011;36033;55.482;37.380;2022-08-21T00:46:56;41.38;;;36.88;;
50134;SDS011;36033;55.482;37.380;2022-08-21T00:49:22;45.92;;;38.33;;
50134;SDS011;36033;55.482;37.380;2022-08-21T00:51:51;46.13;;;40.53;;
50134;SDS011;36033;55.482;37.380;2022-08-21T00:54:21;45.28;;;40.53;;
50134;SDS011;36033;55.482;37.380;2022-08-21T00:56:53;50.10;;;40.47;;
50134;SDS011;36033;55.482;37.380;2022-08-21T00:59:22;44.83;;;40.13;;
50134;SDS011;36033;55.482;37.380;2022-08-21T01:01:49;47.00;;;40.38;;
50134;SDS011;36033;55.482;37.380;2022-08-21T01:06:41;55.33;;;43.10;;
50134;SDS011;36033;55.482;37.380;2022-08-21T01:09:07;50.22;;;42.97;;
50134;SDS011;36033;55.482;37.380;2022-08-21T01:11:34;51.33;;;42.03;;
50134;SDS011;36033;55.482;37.380;2022-08-21T01:14:00;49.90;;;42.95;;
50134;SDS011;36033;55.482;37.380;2022-08-21T01:16:26;57.08;;;48.78;;
50134;SDS011;36033;55.482;37.380;2022-08-21T01:18:51;55.13;;;47.83;;
50134;SDS011;36033;55.482;37.380;2022-08-21T01:23:46;64.20;;;51.22;;
50134;SDS011;36033;55.482;37.380;2022-08-21T01:26:14;60.92;;;51.78;;
50134;SDS011;36033;55.482;37.380;2022-08-21T01:29:28;67.75;;;57.33;;
50134;SDS011;36033;55.482;37.380;2022-08-21T01:31:50;62.22;;;53.30;;
50134;SDS011;36033;55.482;37.380;2022-08-21T01:34:17;61.13;;;54.38;;
50134;SDS011;36033;55.482;37.380;2022-08-21T01:36:43;63.47;;;55.92;;
50134;SDS011;36033;55.482;37.380;2022-08-21T01:39:10;63.85;;;57.10;;
50134;SDS011;36033;55.482;37.380;2022-08-21T01:41:36;63.10;;;55.58;;
50134;SDS011;36033;55.482;37.380;2022-08-21T01:44:02;65.10;;;57.83;;
50134;SDS011;36033;55.482;37.380;2022-08-21T01:46:30;68.25;;;57.63;;
50134;SDS011;36033;55.482;37.380;2022-08-21T01:48:56;68.07;;;58.88;;
50134;SDS011;36033;55.482;37.380;2022-08-21T01:51:21;73.32;;;62.45;;
50134;SDS011;36033;55.482;37.380;2022-08-21T01:53:47;71.97;;;57.92;;
50134;SDS011;36033;55.482;37.380;2022-08-21T01:56:15;67.72;;;60.15;;
50134;SDS011;36033;55.482;37.380;2022-08-21T01:58:42;68.13;;;59.83;;
50134;SDS011;36033;55.482;37.380;2022-08-21T02:01:09;71.60;;;57.80;;
50134;SDS011;36033;55.482;37.380;2022-08-21T02:03:35;66.25;;;55.95;;
50134;SDS011;36033;55.482;37.380;2022-08-21T02:08:28;74.80;;;63.13;;
50134;SDS011;36033;55.482;37.380;2022-08-21T02:10:57;80.18;;;60.90;;
50134;SDS011;36033;55.482;37.380;2022-08-21T02:13:22;77.35;;;66.63;;
50134;SDS011;36033;55.482;37.380;2022-08-21T02:15:48;80.43;;;64.18;;
50134;SDS011;36033;55.482;37.380;2022-08-21T02:18:14;84.35;;;67.28;;
50134;SDS011;36033;55.482;37.380;2022-08-21T02:20:42;81.60;;;69.15;;
50134;SDS011;36033;55.482;37.380;2022-08-21T02:23:23;81.68;;;65.65;;
50134;SDS011;36033;55.482;37.380;2022-08-21T02:25:49;81.70;;;68.07;;
50134;SDS011;36033;55.482;37.380;2022-08-21T02:28:15;78.03;;;66.38;;
50134;SDS011;36033;55.482;37.380;2022-08-21T02:30:46;85.13;;;67.90;;
50134;SDS011;36033;55.482;37.380;2022-08-21T02:33:12;80.57;;;70.07;;
50134;SDS011;36033;55.482;37.380;2022-08-21T02:38:11;77.63;;;62.13;;
50134;SDS011;36033;55.482;37.380;2022-08-21T02:40:39;72.65;;;64.78;;
50134;SDS011;36033;55.482;37.380;2022-08-21T02:43:06;82.57;;;63.90;;
50134;SDS011;36033;55.482;37.380;2022-08-21T02:45:32;73.50;;;63.22;;
50134;SDS011;36033;55.482;37.380;2022-08-21T02:48:00;75.57;;;61.05;;
50134;SDS011;36033;55.482;37.380;2022-08-21T02:50:28;69.97;;;61.70;;
50134;SDS011;36033;55.482;37.380;2022-08-21T02:52:55;77.93;;;60.42;;
50134;SDS011;36033;55.482;37.380;2022-08-21T02:55:23;69.60;;;58.17;;
50134;SDS011;36033;55.482;37.380;2022-08-21T02:57:51;75.65;;;59.22;;
50134;SDS011;36033;55.482;37.380;2022-08-21T03:00:17;76.28;;;57.85;;
50134;SDS011;36033;55.482;37.380;2022-08-21T03:02:42;77.57;;;60.33;;
50134;SDS011;36033;55.482;37.380;2022-08-21T03:05:09;70.75;;;58.05;;
50134;SDS011;36033;55.482;37.380;2022-08-21T03:07:35;75.03;;;58.90;;
50134;SDS011;36033;55.482;37.380;2022-08-21T03:10:03;71.90;;;58.10;;
50134;SDS011;36033;55.482;37.380;2022-08-21T03:12:29;65.40;;;56.08;;
50134;SDS011;36033;55.482;37.380;2022-08-21T03:14:55;79.30;;;57.72;;
50134;SDS011;36033;55.482;37.380;2022-08-21T03:17:21;69.80;;;58.28;;
50134;SDS011;36033;55.482;37.380;2022-08-21T03:19:46;64.78;;;55.53;;
50134;SDS011;36033;55.482;37.380;2022-08-21T03:22:12;62.90;;;54.65;;
50134;SDS011;36033;55.482;37.380;2022-08-21T03:24:37;58.72;;;52.53;;
50134;SDS011;36033;55.482;37.380;2022-08-21T03:27:03;62.47;;;52.60;;
50134;SDS011;36033;55.482;37.380;2022-08-21T03:29:28;62.42;;;51.70;;
50134;SDS011;36033;55.482;37.380;2022-08-21T03:31:54;64.05;;;51.35;;
50134;SDS011;36033;55.482;37.380;2022-08-21T03:34:20;57.70;;;51.53;;
50134;SDS011;36033;55.482;37.380;2022-08-21T03:36:46;55.85;;;50.00;;
50134;SDS011;36033;55.482;37.380;2022-08-21T03:39:12;62.95;;;48.25;;
50134;SDS011;36033;55.482;37.380;2022-08-21T03:41:38;58.90;;;44.97;;
50134;SDS011;36033;55.482;37.380;2022-08-21T03:44:04;58.70;;;45.40;;
50134;SDS011;36033;55.482;37.380;2022-08-21T03:46:30;47.67;;;42.58;;
50134;SDS011;36033;55.482;37.380;2022-08-21T03:48:55;51.25;;;42.45;;
50134;SDS011;36033;55.482;37.380;2022-08-21T03:51:21;50.15;;;39.70;;
50134;SDS011;36033;55.482;37.380;2022-08-21T03:53:47;49.60;;;40.95;;
50134;SDS011;36033;55.482;37.380;2022-08-21T03:56:12;45.65;;;39.53;;
50134;SDS011;36033;55.482;37.380;2022-08-21T03:58:38;44.95;;;38.58;;
50134;SDS011;36033;55.482;37.380;2022-08-21T04:01:04;47.97;;;36.85;;
50134;SDS011;36033;55.482;37.380;2022-08-21T04:03:31;50.53;;;39.50;;
50134;SDS011;36033;55.482;37.380;2022-08-21T04:08:23;41.47;;;36.72;;
50134;SDS011;36033;55.482;37.380;2022-08-21T04:13:15;39.53;;;35.22;;
50134;SDS011;36033;55.482;37.380;2022-08-21T04:15:41;38.88;;;34.00;;
50134;SDS011;36033;55.482;37.380;2022-08-21T04:18:07;41.22;;;36.15;;
50134;SDS011;36033;55.482;37.380;2022-08-21T04:20:33;45.30;;;35.58;;
50134;SDS011;36033;55.482;37.380;2022-08-21T04:23:00;44.72;;;34.50;;
50134;SDS011;36033;55.482;37.380;2022-08-21T04:25:26;46.53;;;32.70;;
50134;SDS011;36033;55.482;37.380;2022-08-21T04:27:52;40.80;;;33.75;;
50134;SDS011;36033;55.482;37.380;2022-08-21T04:30:18;41.60;;;33.38;;
50134;SDS011;36033;55.482;37.380;2022-08-21T04:32:45;36.10;;;30.08;;
50134;SDS011;36033;55.482;37.380;2022-08-21T04:35:12;38.90;;;31.13;;
50134;SDS011;36033;55.482;37.380;2022-08-21T04:37:38;37.08;;;28.65;;
50134;SDS011;36033;55.482;37.380;2022-08-21T04:40:04;43.53;;;28.77;;
50134;SDS011;36033;55.482;37.380;2022-08-21T04:42:30;32.78;;;29.08;;
50134;SDS011;36033;55.482;37.380;2022-08-21T04:44:56;33.47;;;27.45;;
50134;SDS011;36033;55.482;37.380;2022-08-21T04:47:22;32.13;;;28.25;;
50134;SDS011;36033;55.482;37.380;2022-08-21T04:49:49;36.28;;;26.27;;
50134;SDS011;36033;55.482;37.380;2022-08-21T04:54:41;29.77;;;26.10;;
50134;SDS011;36033;55.482;37.380;2022-08-21T04:57:08;30.02;;;25.25;;
50134;SDS011;36033;55.482;37.380;2022-08-21T04:59:37;27.17;;;24.20;;
50134;SDS011;36033;55.482;37.380;2022-08-21T05:02:04;49.83;;;25.15;;
50134;SDS011;36033;55.482;37.380;2022-08-21T05:04:32;26.60;;;23.92;;
50134;SDS011;36033;55.482;37.380;2022-08-21T05:06:59;28.20;;;23.08;;
50134;SDS011;36033;55.482;37.380;2022-08-21T05:09:27;28.55;;;21.77;;
50134;SDS011;36033;55.482;37.380;2022-08-21T05:11:53;24.40;;;20.95;;
50134;SDS011;36033;55.482;37.380;2022-08-21T05:14:19;26.05;;;23.27;;
50134;SDS011;36033;55.482;37.380;2022-08-21T05:16:45;24.75;;;22.05;;
50134;SDS011;36033;55.482;37.380;2022-08-21T05:19:17;28.80;;;20.67;;
50134;SDS011;36033;55.482;37.380;2022-08-21T05:21:43;30.83;;;23.00;;
50134;SDS011;36033;55.482;37.380;2022-08-21T05:24:09;24.48;;;21.42;;
50134;SDS011;36033;55.482;37.380;2022-08-21T05:26:35;27.70;;;20.25;;
50134;SDS011;36033;55.482;37.380;2022-08-21T05:29:02;23.13;;;18.73;;
50134;SDS011;36033;55.482;37.380;2022-08-21T05:31:28;26.17;;;17.88;;
50134;SDS011;36033;55.482;37.380;2022-08-21T05:33:54;26.00;;;19.65;;
50134;SDS011;36033;55.482;37.380;2022-08-21T05:36:19;23.02;;;17.92;;
50134;SDS011;36033;55.482;37.380;2022-08-21T05:38:45;20.60;;;18.48;;
50134;SDS011;36033;55.482;37.380;2022-08-21T05:41:11;19.92;;;17.63;;
50134;SDS011;36033;55.482;37.380;2022-08-21T05:43:36;23.08;;;17.30;;
50134;SDS011;36033;55.482;37.380;2022-08-21T05:46:02;27.00;;;17.65;;
50134;SDS011;36033;55.482;37.380;2022-08-21T05:48:30;31.38;;;16.65;;
50134;SDS011;36033;55.482;37.380;2022-08-21T05:50:56;19.80;;;15.20;;
50134;SDS011;36033;55.482;37.380;2022-08-21T05:53:22;22.38;;;16.80;;
50134;SDS011;36033;55.482;37.380;2022-08-21T05:55:49;23.83;;;15.32;;
50134;SDS011;36033;55.482;37.380;2022-08-21T05:58:17;18.73;;;15.45;;
50134;SDS011;36033;55.482;37.380;2022-08-21T06:00:45;26.75;;;16.25;;
50134;SDS011;36033;55.482;37.380;2022-08-21T06:03:13;17.25;;;14.88;;
50134;SDS011;36033;55.482;37.380;2022-08-21T06:05:42;18.50;;;15.65;;
50134;SDS011;36033;55.482;37.380;2022-08-21T06:08:08;20.85;;;14.13;;
50134;SDS011;36033;55.482;37.380;2022-08-21T06:10:34;24.45;;;13.02;;
50134;SDS011;36033;55.482;37.380;2022-08-21T06:15:25;24.50;;;12.50;;
50134;SDS011;36033;55.482;37.380;2022-08-21T06:20:17;12.35;;;9.27;;
50134;SDS011;36033;55.482;37.380;2022-08-21T06:25:08;10.27;;;8.48;;
50134;SDS011;36033;55.482;37.380;2022-08-21T06:27:35;11.60;;;7.85;;
50134;SDS011;36033;55.482;37.380;2022-08-21T06:32:28;12.15;;;8.55;;
50134;SDS011;36033;55.482;37.380;2022-08-21T06:37:23;11.15;;;7.45;;
50134;SDS011;36033;55.482;37.380;2022-08-21T06:42:14;13.75;;;10.45;;
50134;SDS011;36033;55.482;37.380;2022-08-21T06:44:40;14.50;;;10.32;;
50134;SDS011;36033;55.482;37.380;2022-08-21T06:49:32;10.20;;;9.10;;
50134;SDS011;36033;55.482;37.380;2022-08-21T06:54:24;11.85;;;9.68;;
50134;SDS011;36033;55.482;37.380;2022-08-21T06:59:16;12.05;;;10.23;;
50134;SDS011;36033;55.482;37.380;2022-08-21T07:04:07;12.93;;;10.27;;
50134;SDS011;36033;55.482;37.380;2022-08-21T07:08:58;10.85;;;9.05;;
50134;SDS011;36033;55.482;37.380;2022-08-21T07:11:24;9.77;;;7.90;;
50134;SDS011;36033;55.482;37.380;2022-08-21T07:13:50;15.48;;;9.52;;
50134;SDS011;36033;55.482;37.380;2022-08-21T07:16:18;12.55;;;7.90;;
50134;SDS011;36033;55.482;37.380;2022-08-21T07:18:44;11.02;;;8.23;;
50134;SDS011;36033;55.482;37.380;2022-08-21T07:23:42;12.65;;;7.63;;
50134;SDS011;36033;55.482;37.380;2022-08-21T07:26:10;14.35;;;7.95;;
50134;SDS011;36033;55.482;37.380;2022-08-21T07:28:37;8.43;;;7.40;;
50134;SDS011;36033;55.482;37.380;2022-08-21T07:33:30;10.27;;;6.57;;
50134;SDS011;36033;55.482;37.380;2022-08-21T07:35:57;8.48;;;7.03;;
50134;SDS011;36033;55.482;37.380;2022-08-21T07:38:22;12.38;;;7.03;;
50134;SDS011;36033;55.482;37.380;2022-08-21T07:40:49;12.00;;;6.10;;
50134;SDS011;36033;55.482;37.380;2022-08-21T07:43:15;8.52;;;7.05;;
50134;SDS011;36033;55.482;37.380;2022-08-21T07:45:42;9.63;;;6.32;;
50134;SDS011;36033;55.482;37.380;2022-08-21T07:48:09;8.80;;;5.70;;
50134;SDS011;36033;55.482;37.380;2022-08-21T07:50:35;12.30;;;6.00;;
50134;SDS011;36033;55.482;37.380;2022-08-21T07:53:00;12.23;;;7.97;;
50134;SDS011;36033;55.482;37.380;2022-08-21T07:55:27;10.40;;;7.28;;
50134;SDS011;36033;55.482;37.380;2022-08-21T07:57:53;9.18;;;7.55;;
50134;SDS011;36033;55.482;37.380;2022-08-21T08:00:20;9.00;;;7.25;;
50134;SDS011;36033;55.482;37.380;2022-08-21T08:02:50;11.02;;;6.82;;
50134;SDS011;36033;55.482;37.380;2022-08-21T08:05:18;10.23;;;7.05;;
50134;SDS011;36033;55.482;37.380;2022-08-21T08:07:45;12.90;;;6.80;;
50134;SDS011;36033;55.482;37.380;2022-08-21T08:10:10;9.27;;;7.25;;
50134;SDS011;36033;55.482;37.380;2022-08-21T08:12:37;12.13;;;7.75;;
50134;SDS011;36033;55.482;37.380;2022-08-21T08:15:05;17.17;;;6.25;;
50134;SDS011;36033;55.482;37.380;2022-08-21T08:17:32;7.68;;;4.72;;
50134;SDS011;36033;55.482;37.380;2022-08-21T08:19:58;8.35;;;4.55;;
50134;SDS011;36033;55.482;37.380;2022-08-21T08:22:26;11.45;;;4.35;;
50134;SDS011;36033;55.482;37.380;2022-08-21T08:24:52;8.60;;;4.38;;
50134;SDS011;36033;55.482;37.380;2022-08-21T08:27:18;7.80;;;5.50;;
50134;SDS011;36033;55.482;37.380;2022-08-21T08:29:44;6.07;;;4.85;;
50134;SDS011;36033;55.482;37.380;2022-08-21T08:32:10;11.18;;;7.00;;
50134;SDS011;36033;55.482;37.380;2022-08-21T08:34:37;13.13;;;5.25;;
50134;SDS011;36033;55.482;37.380;2022-08-21T08:37:04;9.38;;;5.05;;
50134;SDS011;36033;55.482;37.380;2022-08-21T08:39:30;10.73;;;5.13;;
50134;SDS011;36033;55.482;37.380;2022-08-21T08:42:11;7.30;;;4.70;;
50134;SDS011;36033;55.482;37.380;2022-08-21T08:44:42;9.02;;;5.70;;
50134;SDS011;36033;55.482;37.380;2022-08-21T08:47:09;11.50;;;5.55;;
50134;SDS011;36033;55.482;37.380;2022-08-21T08:49:37;7.78;;;5.03;;
50134;SDS011;36033;55.482;37.380;2022-08-21T08:55:03;11.32;;;5.55;;
50134;SDS011;36033;55.482;37.380;2022-08-21T08:57:32;6.47;;;4.57;;
50134;SDS011;36033;55.482;37.380;2022-08-21T08:59:59;13.07;;;4.70;;
50134;SDS011;36033;55.482;37.380;2022-08-21T09:02:26;8.73;;;3.88;;
50134;SDS011;36033;55.482;37.380;2022-08-21T09:04:55;5.57;;;3.80;;
50134;SDS011;36033;55.482;37.380;2022-08-21T09:15:22;7.78;;;3.95;;
50134;SDS011;36033;55.482;37.380;2022-08-21T09:20:39;7.85;;;5.07;;
50134;SDS011;36033;55.482;37.380;2022-08-21T09:23:35;9.45;;;4.38;;
50134;SDS011;36033;55.482;37.380;2022-08-21T09:26:16;6.53;;;4.78;;
50134;SDS011;36033;55.482;37.380;2022-08-21T09:28:45;9.52;;;4.50;;
50134;SDS011;36033;55.482;37.380;2022-08-21T09:34:03;9.10;;;4.07;;
50134;SDS011;36033;55.482;37.380;2022-08-21T09:36:43;4.45;;;3.20;;
50134;SDS011;36033;55.482;37.380;2022-08-21T09:39:11;4.65;;;2.75;;
50134;SDS011;36033;55.482;37.380;2022-08-21T09:41:38;5.53;;;4.05;;
50134;SDS011;36033;55.482;37.380;2022-08-21T09:44:05;9.45;;;3.85;;
50134;SDS011;36033;55.482;37.380;2022-08-21T09:46:32;5.53;;;4.00;;
50134;SDS011;36033;55.482;37.380;2022-08-21T09:48:59;13.32;;;3.95;;
50134;SDS011;36033;55.482;37.380;2022-08-21T09:51:27;8.15;;;3.75;;
50134;SDS011;36033;55.482;37.380;2022-08-21T09:53:55;12.60;;;4.38;;
50134;SDS011;36033;55.482;37.380;2022-08-21T09:56:36;4.28;;;3.15;;
50134;SDS011;36033;55.482;37.380;2022-08-21T09:59:29;7.65;;;3.55;;
50134;SDS011;36033;55.482;37.380;2022-08-21T10:01:58;6.03;;;3.40;;
50134;SDS011;36033;55.482;37.380;2022-08-21T10:04:36;7.78;;;3.15;;
50134;SDS011;36033;55.482;37.380;2022-08-21T10:07:06;6.70;;;3.67;;
50134;SDS011;36033;55.482;37.380;2022-08-21T10:09:35;10.88;;;3.55;;
50134;SDS011;36033;55.482;37.380;2022-08-21T10:20:35;13.48;;;5.78;;
50134;SDS011;36033;55.482;37.380;2022-08-21T10:23:51;6.80;;;4.30;;
50134;SDS011;36033;55.482;37.380;2022-08-21T10:25:58;12.68;;;4.93;;
50134;SDS011;36033;55.482;37.380;2022-08-21T10:31:00;17.90;;;5.45;;
50134;SDS011;36033;55.482;37.380;2022-08-21T10:36:13;10.65;;;4.38;;
50134;SDS011;36033;55.482;37.380;2022-08-21T10:38:46;13.18;;;3.58;;
50134;SDS011;36033;55.482;37.380;2022-08-21T10:47:00;8.23;;;3.92;;
50134;SDS011;36033;55.482;37.380;2022-08-21T10:54:57;8.80;;;4.22;;
50134;SDS011;36033;55.482;37.380;2022-08-21T10:57:40;6.97;;;3.03;;
50134;SDS011;36033;55.482;37.380;2022-08-21T11:00:21;10.40;;;3.00;;
50134;SDS011;36033;55.482;37.380;2022-08-21T11:02:58;3.67;;;1.75;;
50134;SDS011;36033;55.482;37.380;2022-08-21T11:05:38;5.30;;;2.70;;
50134;SDS011;36033;55.482;37.380;2022-08-21T11:08:12;7.22;;;2.55;;
50134;SDS011;36033;55.482;37.380;2022-08-21T11:10:45;5.40;;;2.22;;
50134;SDS011;36033;55.482;37.380;2022-08-21T11:13:19;12.18;;;2.17;;
50134;SDS011;36033;55.482;37.380;2022-08-21T11:18:41;7.82;;;2.15;;
50134;SDS011;36033;55.482;37.380;2022-08-21T11:21:26;9.73;;;2.08;;
50134;SDS011;36033;55.482;37.380;2022-08-21T11:24:20;4.95;;;1.77;;
50134;SDS011;36033;55.482;37.380;2022-08-21T11:27:03;5.60;;;2.17;;
50134;SDS011;36033;55.482;37.380;2022-08-21T11:32:03;5.35;;;1.63;;
50134;SDS011;36033;55.482;37.380;2022-08-21T11:34:54;10.05;;;2.08;;
50134;SDS011;36033;55.482;37.380;2022-08-21T11:45:51;14.27;;;2.35;;
50134;SDS011;36033;55.482;37.380;2022-08-21T11:48:40;12.35;;;2.65;;
50134;SDS011;36033;55.482;37.380;2022-08-21T11:51:13;5.60;;;2.03;;
50134;SDS011;36033;55.482;37.380;2022-08-21T11:53:51;21.83;;;2.15;;
50134;SDS011;36033;55.482;37.380;2022-08-21T11:56:46;5.60;;;2.28;;
50134;SDS011;36033;55.482;37.380;2022-08-21T12:02:12;13.38;;;1.67;;
50134;SDS011;36033;55.482;37.380;2022-08-21T12:04:47;8.88;;;1.95;;
50134;SDS011;36033;55.482;37.380;2022-08-21T12:10:04;8.07;;;2.60;;
50134;SDS011;36033;55.482;37.380;2022-08-21T12:12:41;9.02;;;2.92;;
50134;SDS011;36033;55.482;37.380;2022-08-21T12:15:42;12.20;;;3.08;;
50134;SDS011;36033;55.482;37.380;2022-08-21T12:18:04;12.68;;;4.03;;
50134;SDS011;36033;55.482;37.380;2022-08-21T12:20:58;13.18;;;2.50;;
50134;SDS011;36033;55.482;37.380;2022-08-21T12:23:33;10.82;;;2.30;;
50134;SDS011;36033;55.482;37.380;2022-08-21T12:26:30;16.83;;;2.53;;
50134;SDS011;36033;55.482;37.380;2022-08-21T12:29:03;11.00;;;2.50;;
50134;SDS011;36033;55.482;37.380;2022-08-21T12:31:33;23.90;;;3.15;;
